sensor_id;sensor_type;location;lat;lon;timestamp;temperature;humidity
4566;DHT22;2295;51.050;14.608;2023-05-07T00:01:52;7.30;99.90
4566;DHT22;2295;51.050;14.608;2023-05-07T00:04:20;7.40;99.90
4566;DHT22;2295;51.050;14.608;2023-05-07T00:06:50;7.40;99.90
4566;DHT22;2295;51.050;14.608;2023-05-07T00:09:19;7.40;99.90
4566;DHT22;2295;51.050;14.608;2023-05-07T00:11:47;7.40;99.90
4566;DHT22;2295;51.050;14.608;2023-05-07T00:14:15;7.30;99.90
4566;DHT22;2295;51.050;14.608;2023-05-07T00:16:44;7.30;99.90
4566;DHT22;2295;51.050;14.608;2023-05-07T00:19:12;7.30;99.90
4566;DHT22;2295;51.050;14.608;2023-05-07T00:21:41;7.20;99.90
4566;DHT22;2295;51.050;14.608;2023-05-07T00:24:11;7.20;99.90
4566;DHT22;2295;51.050;14.608;2023-05-07T00:26:39;7.20;99.90
4566;DHT22;2295;51.050;14.608;2023-05-07T00:29:08;7.20;99.90
4566;DHT22;2295;51.050;14.608;2023-05-07T00:31:36;7.20;99.90
4566;DHT22;2295;51.050;14.608;2023-05-07T00:34:05;7.20;99.90
4566;DHT22;2295;51.050;14.608;2023-05-07T00:36:33;7.20;99.90
4566;DHT22;2295;51.050;14.608;2023-05-07T00:39:02;7.20;99.90
4566;DHT22;2295;51.050;14.608;2023-05-07T00:41:32;7.20;99.90
4566;DHT22;2295;51.050;14.608;2023-05-07T00:44:00;7.10;99.90
4566;DHT22;2295;51.050;14.608;2023-05-07T00:46:30;7.10;99.90
4566;DHT22;2295;51.050;14.608;2023-05-07T00:48:59;7.10;99.90
4566;DHT22;2295;51.050;14.608;2023-05-07T00:51:29;7.10;99.90
4566;DHT22;2295;51.050;14.608;2023-05-07T00:53:58;7.10;99.90
4566;DHT22;2295;51.050;14.608;2023-05-07T00:56:26;7.10;99.90
4566;DHT22;2295;51.050;14.608;2023-05-07T00:58:57;7.10;99.90
4566;DHT22;2295;51.050;14.608;2023-05-07T01:01:25;7.00;99.90
4566;DHT22;2295;51.050;14.608;2023-05-07T01:03:54;7.10;99.90
4566;DHT22;2295;51.050;14.608;2023-05-07T01:06:24;7.10;99.90
4566;DHT22;2295;51.050;14.608;2023-05-07T01:08:55;7.00;99.90
4566;DHT22;2295;51.050;14.608;2023-05-07T01:11:24;7.00;99.90
4566;DHT22;2295;51.050;14.608;2023-05-07T01:13:53;7.00;99.90
4566;DHT22;2295;51.050;14.608;2023-05-07T01:16:23;7.00;99.90
4566;DHT22;2295;51.050;14.608;2023-05-07T01:18:52;7.00;99.90
4566;DHT22;2295;51.050;14.608;2023-05-07T01:21:25;7.00;99.90
4566;DHT22;2295;51.050;14.608;2023-05-07T01:23:55;7.00;99.90
4566;DHT22;2295;51.050;14.608;2023-05-07T01:26:25;6.90;99.90
4566;DHT22;2295;51.050;14.608;2023-05-07T01:28:53;6.90;99.90
4566;DHT22;2295;51.050;14.608;2023-05-07T01:31:23;6.90;99.90
4566;DHT22;2295;51.050;14.608;2023-05-07T01:33:52;6.90;99.90
4566;DHT22;2295;51.050;14.608;2023-05-07T01:36:22;6.90;99.90
4566;DHT22;2295;51.050;14.608;2023-05-07T01:38:54;6.90;99.90
4566;DHT22;2295;51.050;14.608;2023-05-07T01:41:25;6.90;99.90
4566;DHT22;2295;51.050;14.608;2023-05-07T01:43:55;6.90;99.90
4566;DHT22;2295;51.050;14.608;2023-05-07T01:46:26;6.90;99.90
4566;DHT22;2295;51.050;14.608;2023-05-07T01:48:54;6.80;99.90
4566;DHT22;2295;51.050;14.608;2023-05-07T01:51:23;6.90;99.90
4566;DHT22;2295;51.050;14.608;2023-05-07T01:53:52;6.90;99.90
4566;DHT22;2295;51.050;14.608;2023-05-07T01:56:22;6.90;99.90
4566;DHT22;2295;51.050;14.608;2023-05-07T01:58:51;6.90;99.90
4566;DHT22;2295;51.050;14.608;2023-05-07T02:01:20;6.90;99.90
4566;DHT22;2295;51.050;14.608;2023-05-07T02:03:48;6.90;99.90
4566;DHT22;2295;51.050;14.608;2023-05-07T02:06:17;6.90;99.90
4566;DHT22;2295;51.050;14.608;2023-05-07T02:08:47;6.90;99.90
4566;DHT22;2295;51.050;14.608;2023-05-07T02:11:16;6.90;99.90
4566;DHT22;2295;51.050;14.608;2023-05-07T02:13:45;6.90;99.90
4566;DHT22;2295;51.050;14.608;2023-05-07T02:16:14;6.80;99.90
4566;DHT22;2295;51.050;14.608;2023-05-07T02:18:42;6.80;99.90
4566;DHT22;2295;51.050;14.608;2023-05-07T02:21:11;6.80;99.90
4566;DHT22;2295;51.050;14.608;2023-05-07T02:23:39;6.80;99.90
4566;DHT22;2295;51.050;14.608;2023-05-07T02:26:08;6.80;99.90
4566;DHT22;2295;51.050;14.608;2023-05-07T02:28:37;6.80;99.90
4566;DHT22;2295;51.050;14.608;2023-05-07T02:31:06;6.80;99.90
4566;DHT22;2295;51.050;14.608;2023-05-07T02:33:35;6.70;99.90
4566;DHT22;2295;51.050;14.608;2023-05-07T02:36:07;6.70;99.90
4566;DHT22;2295;51.050;14.608;2023-05-07T02:38:36;6.70;99.90
4566;DHT22;2295;51.050;14.608;2023-05-07T02:41:04;6.70;99.90
4566;DHT22;2295;51.050;14.608;2023-05-07T02:43:33;6.70;99.90
4566;DHT22;2295;51.050;14.608;2023-05-07T02:46:02;6.70;99.90
4566;DHT22;2295;51.050;14.608;2023-05-07T02:48:33;6.70;99.90
4566;DHT22;2295;51.050;14.608;2023-05-07T02:51:02;6.70;99.90
4566;DHT22;2295;51.050;14.608;2023-05-07T02:53:32;6.70;99.90
4566;DHT22;2295;51.050;14.608;2023-05-07T02:56:01;6.70;99.90
4566;DHT22;2295;51.050;14.608;2023-05-07T02:58:29;6.70;99.90
4566;DHT22;2295;51.050;14.608;2023-05-07T03:00:58;6.70;99.90
4566;DHT22;2295;51.050;14.608;2023-05-07T03:03:26;6.70;99.90
4566;DHT22;2295;51.050;14.608;2023-05-07T03:05:56;6.70;99.90
4566;DHT22;2295;51.050;14.608;2023-05-07T03:08:24;6.60;99.90
4566;DHT22;2295;51.050;14.608;2023-05-07T03:10:53;6.60;99.90
4566;DHT22;2295;51.050;14.608;2023-05-07T03:13:21;6.60;99.90
4566;DHT22;2295;51.050;14.608;2023-05-07T03:15:50;6.60;99.90
4566;DHT22;2295;51.050;14.608;2023-05-07T03:18:18;6.60;99.90
4566;DHT22;2295;51.050;14.608;2023-05-07T03:20:48;6.50;99.90
4566;DHT22;2295;51.050;14.608;2023-05-07T03:23:18;6.50;99.90
4566;DHT22;2295;51.050;14.608;2023-05-07T03:25:50;6.50;99.90
4566;DHT22;2295;51.050;14.608;2023-05-07T03:28:18;6.60;99.90
4566;DHT22;2295;51.050;14.608;2023-05-07T03:30:47;6.60;99.90
4566;DHT22;2295;51.050;14.608;2023-05-07T03:33:15;6.50;99.90
4566;DHT22;2295;51.050;14.608;2023-05-07T03:35:44;6.50;99.90
4566;DHT22;2295;51.050;14.608;2023-05-07T03:38:12;6.50;99.90
4566;DHT22;2295;51.050;14.608;2023-05-07T03:40:42;6.50;99.90
4566;DHT22;2295;51.050;14.608;2023-05-07T03:43:11;6.50;99.90
4566;DHT22;2295;51.050;14.608;2023-05-07T03:45:39;6.50;99.90
4566;DHT22;2295;51.050;14.608;2023-05-07T03:48:07;6.40;99.90
4566;DHT22;2295;51.050;14.608;2023-05-07T03:50:36;6.40;99.90
4566;DHT22;2295;51.050;14.608;2023-05-07T03:53:05;6.40;99.90
4566;DHT22;2295;51.050;14.608;2023-05-07T03:55:33;6.50;99.90
4566;DHT22;2295;51.050;14.608;2023-05-07T03:58:03;6.40;99.90
4566;DHT22;2295;51.050;14.608;2023-05-07T04:00:32;6.50;99.90
4566;DHT22;2295;51.050;14.608;2023-05-07T04:03:05;6.50;99.90
4566;DHT22;2295;51.050;14.608;2023-05-07T04:05:33;6.50;99.90
4566;DHT22;2295;51.050;14.608;2023-05-07T04:08:02;6.50;99.90
4566;DHT22;2295;51.050;14.608;2023-05-07T04:10:30;6.50;99.90
4566;DHT22;2295;51.050;14.608;2023-05-07T04:12:59;6.40;99.90
4566;DHT22;2295;51.050;14.608;2023-05-07T04:15:29;6.40;99.90
4566;DHT22;2295;51.050;14.608;2023-05-07T04:17:57;6.40;99.90
4566;DHT22;2295;51.050;14.608;2023-05-07T04:20:26;6.50;99.90
4566;DHT22;2295;51.050;14.608;2023-05-07T04:22:54;6.50;99.90
4566;DHT22;2295;51.050;14.608;2023-05-07T04:25:22;6.40;99.90
4566;DHT22;2295;51.050;14.608;2023-05-07T04:27:53;6.40;99.90
4566;DHT22;2295;51.050;14.608;2023-05-07T04:30:24;6.40;99.90
4566;DHT22;2295;51.050;14.608;2023-05-07T04:32:53;6.40;99.90
4566;DHT22;2295;51.050;14.608;2023-05-07T04:35:23;6.40;99.90
4566;DHT22;2295;51.050;14.608;2023-05-07T04:37:51;6.40;99.90
4566;DHT22;2295;51.050;14.608;2023-05-07T04:40:20;6.40;99.90
4566;DHT22;2295;51.050;14.608;2023-05-07T04:42:48;6.40;99.90
4566;DHT22;2295;51.050;14.608;2023-05-07T04:45:17;6.40;99.90
4566;DHT22;2295;51.050;14.608;2023-05-07T04:47:45;6.40;99.90
4566;DHT22;2295;51.050;14.608;2023-05-07T04:50:15;6.40;99.90
4566;DHT22;2295;51.050;14.608;2023-05-07T04:52:46;6.40;99.90
4566;DHT22;2295;51.050;14.608;2023-05-07T04:55:14;6.40;99.90
4566;DHT22;2295;51.050;14.608;2023-05-07T04:57:43;6.40;99.90
4566;DHT22;2295;51.050;14.608;2023-05-07T05:00:12;6.50;99.90
4566;DHT22;2295;51.050;14.608;2023-05-07T05:02:41;6.50;99.90
4566;DHT22;2295;51.050;14.608;2023-05-07T05:05:10;6.40;99.90
4566;DHT22;2295;51.050;14.608;2023-05-07T05:07:40;6.40;99.90
4566;DHT22;2295;51.050;14.608;2023-05-07T05:10:08;6.40;99.90
4566;DHT22;2295;51.050;14.608;2023-05-07T05:12:37;6.40;99.90
4566;DHT22;2295;51.050;14.608;2023-05-07T05:15:07;6.50;99.90
4566;DHT22;2295;51.050;14.608;2023-05-07T05:17:37;6.50;99.90
4566;DHT22;2295;51.050;14.608;2023-05-07T05:20:06;6.60;99.90
4566;DHT22;2295;51.050;14.608;2023-05-07T05:22:40;6.60;99.90
4566;DHT22;2295;51.050;14.608;2023-05-07T05:25:09;6.60;99.90
4566;DHT22;2295;51.050;14.608;2023-05-07T05:27:37;6.60;99.90
4566;DHT22;2295;51.050;14.608;2023-05-07T05:30:07;6.60;99.90
4566;DHT22;2295;51.050;14.608;2023-05-07T05:32:36;6.70;99.90
4566;DHT22;2295;51.050;14.608;2023-05-07T05:35:07;6.70;99.90
4566;DHT22;2295;51.050;14.608;2023-05-07T05:37:35;6.70;99.90
4566;DHT22;2295;51.050;14.608;2023-05-07T05:40:06;6.70;99.90
4566;DHT22;2295;51.050;14.608;2023-05-07T05:42:35;6.80;99.90
4566;DHT22;2295;51.050;14.608;2023-05-07T05:45:05;6.80;99.90
4566;DHT22;2295;51.050;14.608;2023-05-07T05:47:33;6.80;99.90
4566;DHT22;2295;51.050;14.608;2023-05-07T05:50:01;6.80;99.90
4566;DHT22;2295;51.050;14.608;2023-05-07T05:52:30;6.80;99.90
4566;DHT22;2295;51.050;14.608;2023-05-07T05:54:59;6.80;99.90
4566;DHT22;2295;51.050;14.608;2023-05-07T05:57:29;6.90;99.90
4566;DHT22;2295;51.050;14.608;2023-05-07T05:59:57;6.90;99.90
4566;DHT22;2295;51.050;14.608;2023-05-07T06:02:26;6.80;99.90
4566;DHT22;2295;51.050;14.608;2023-05-07T06:04:54;6.80;99.90
4566;DHT22;2295;51.050;14.608;2023-05-07T06:07:23;6.90;99.90
4566;DHT22;2295;51.050;14.608;2023-05-07T06:09:51;6.90;99.90
4566;DHT22;2295;51.050;14.608;2023-05-07T06:12:20;7.00;99.90
4566;DHT22;2295;51.050;14.608;2023-05-07T06:14:50;7.00;99.90
4566;DHT22;2295;51.050;14.608;2023-05-07T06:17:19;7.00;99.90
4566;DHT22;2295;51.050;14.608;2023-05-07T06:19:48;7.00;99.90
4566;DHT22;2295;51.050;14.608;2023-05-07T06:22:16;7.10;99.90
4566;DHT22;2295;51.050;14.608;2023-05-07T06:24:45;7.10;99.90
4566;DHT22;2295;51.050;14.608;2023-05-07T06:27:13;7.10;99.90
4566;DHT22;2295;51.050;14.608;2023-05-07T06:29:42;7.10;99.90
4566;DHT22;2295;51.050;14.608;2023-05-07T06:32:13;7.10;99.90
4566;DHT22;2295;51.050;14.608;2023-05-07T06:34:42;7.10;99.90
4566;DHT22;2295;51.050;14.608;2023-05-07T06:37:10;7.10;99.90
4566;DHT22;2295;51.050;14.608;2023-05-07T06:39:39;7.10;99.90
4566;DHT22;2295;51.050;14.608;2023-05-07T06:42:08;7.10;99.90
4566;DHT22;2295;51.050;14.608;2023-05-07T06:44:37;7.10;99.90
4566;DHT22;2295;51.050;14.608;2023-05-07T06:47:13;7.10;99.90
4566;DHT22;2295;51.050;14.608;2023-05-07T06:49:42;7.00;99.90
4566;DHT22;2295;51.050;14.608;2023-05-07T06:52:11;7.00;99.90
4566;DHT22;2295;51.050;14.608;2023-05-07T06:54:40;6.90;99.90
4566;DHT22;2295;51.050;14.608;2023-05-07T06:57:09;6.90;99.90
4566;DHT22;2295;51.050;14.608;2023-05-07T06:59:37;6.90;99.90
4566;DHT22;2295;51.050;14.608;2023-05-07T07:02:06;6.80;99.90
4566;DHT22;2295;51.050;14.608;2023-05-07T07:04:36;6.80;99.90
4566;DHT22;2295;51.050;14.608;2023-05-07T07:07:05;6.70;99.90
4566;DHT22;2295;51.050;14.608;2023-05-07T07:09:34;6.70;99.90
4566;DHT22;2295;51.050;14.608;2023-05-07T07:12:03;6.60;99.90
4566;DHT22;2295;51.050;14.608;2023-05-07T07:14:32;6.80;99.90
4566;DHT22;2295;51.050;14.608;2023-05-07T07:17:03;6.90;99.90
4566;DHT22;2295;51.050;14.608;2023-05-07T07:19:33;7.00;99.90
4566;DHT22;2295;51.050;14.608;2023-05-07T07:22:03;6.90;99.90
4566;DHT22;2295;51.050;14.608;2023-05-07T07:24:40;6.90;99.90
4566;DHT22;2295;51.050;14.608;2023-05-07T07:27:09;6.90;99.90
4566;DHT22;2295;51.050;14.608;2023-05-07T07:29:40;6.90;99.90
4566;DHT22;2295;51.050;14.608;2023-05-07T07:32:08;7.00;99.90
4566;DHT22;2295;51.050;14.608;2023-05-07T07:34:37;7.00;99.90
4566;DHT22;2295;51.050;14.608;2023-05-07T07:37:07;6.90;99.90
4566;DHT22;2295;51.050;14.608;2023-05-07T07:39:35;6.90;99.90
4566;DHT22;2295;51.050;14.608;2023-05-07T07:42:04;7.00;99.90
4566;DHT22;2295;51.050;14.608;2023-05-07T07:44:33;7.10;99.90
4566;DHT22;2295;51.050;14.608;2023-05-07T07:47:01;7.20;99.90
4566;DHT22;2295;51.050;14.608;2023-05-07T07:49:30;7.20;99.90
4566;DHT22;2295;51.050;14.608;2023-05-07T07:51:58;7.30;99.90
4566;DHT22;2295;51.050;14.608;2023-05-07T07:54:28;7.30;99.90
4566;DHT22;2295;51.050;14.608;2023-05-07T07:56:57;7.40;99.90
4566;DHT22;2295;51.050;14.608;2023-05-07T07:59:25;7.50;99.90
4566;DHT22;2295;51.050;14.608;2023-05-07T08:01:54;7.50;99.90
4566;DHT22;2295;51.050;14.608;2023-05-07T08:04:23;7.50;99.90
4566;DHT22;2295;51.050;14.608;2023-05-07T08:06:52;7.60;99.90
4566;DHT22;2295;51.050;14.608;2023-05-07T08:09:21;7.50;99.90
4566;DHT22;2295;51.050;14.608;2023-05-07T08:11:51;7.50;99.90
4566;DHT22;2295;51.050;14.608;2023-05-07T08:14:22;7.60;99.90
4566;DHT22;2295;51.050;14.608;2023-05-07T08:16:50;7.60;99.90
4566;DHT22;2295;51.050;14.608;2023-05-07T08:19:22;7.60;99.90
4566;DHT22;2295;51.050;14.608;2023-05-07T08:21:50;7.70;99.90
4566;DHT22;2295;51.050;14.608;2023-05-07T08:24:19;7.80;99.90
4566;DHT22;2295;51.050;14.608;2023-05-07T08:26:47;7.80;99.90
4566;DHT22;2295;51.050;14.608;2023-05-07T08:29:18;7.70;99.90
4566;DHT22;2295;51.050;14.608;2023-05-07T08:31:46;7.70;99.90
4566;DHT22;2295;51.050;14.608;2023-05-07T08:34:15;7.80;99.90
4566;DHT22;2295;51.050;14.608;2023-05-07T08:36:46;7.90;99.90
4566;DHT22;2295;51.050;14.608;2023-05-07T08:39:15;8.10;99.90
4566;DHT22;2295;51.050;14.608;2023-05-07T08:41:45;8.30;99.90
4566;DHT22;2295;51.050;14.608;2023-05-07T08:44:14;8.50;99.90
4566;DHT22;2295;51.050;14.608;2023-05-07T08:46:46;8.60;99.90
4566;DHT22;2295;51.050;14.608;2023-05-07T08:49:17;8.60;99.90
4566;DHT22;2295;51.050;14.608;2023-05-07T08:51:46;8.70;99.90
4566;DHT22;2295;51.050;14.608;2023-05-07T08:54:16;8.70;99.90
4566;DHT22;2295;51.050;14.608;2023-05-07T08:56:47;8.70;99.90
4566;DHT22;2295;51.050;14.608;2023-05-07T08:59:16;8.60;99.90
4566;DHT22;2295;51.050;14.608;2023-05-07T09:01:45;8.50;99.90
4566;DHT22;2295;51.050;14.608;2023-05-07T09:04:14;8.40;99.90
4566;DHT22;2295;51.050;14.608;2023-05-07T09:06:43;8.40;99.90
4566;DHT22;2295;51.050;14.608;2023-05-07T09:09:14;8.40;99.90
4566;DHT22;2295;51.050;14.608;2023-05-07T09:11:45;8.50;99.90
4566;DHT22;2295;51.050;14.608;2023-05-07T09:14:13;8.70;99.90
4566;DHT22;2295;51.050;14.608;2023-05-07T09:16:53;9.10;99.90
4566;DHT22;2295;51.050;14.608;2023-05-07T09:19:23;9.30;99.90
4566;DHT22;2295;51.050;14.608;2023-05-07T09:21:58;9.40;99.90
4566;DHT22;2295;51.050;14.608;2023-05-07T09:24:27;9.40;99.90
4566;DHT22;2295;51.050;14.608;2023-05-07T09:26:58;9.60;99.90
4566;DHT22;2295;51.050;14.608;2023-05-07T09:29:28;9.70;99.90
4566;DHT22;2295;51.050;14.608;2023-05-07T09:31:58;9.70;99.90
4566;DHT22;2295;51.050;14.608;2023-05-07T09:34:27;9.70;99.90
4566;DHT22;2295;51.050;14.608;2023-05-07T09:36:55;9.70;99.90
4566;DHT22;2295;51.050;14.608;2023-05-07T09:39:25;9.60;99.90
4566;DHT22;2295;51.050;14.608;2023-05-07T09:41:54;9.70;99.90
4566;DHT22;2295;51.050;14.608;2023-05-07T09:44:22;10.00;99.90
4566;DHT22;2295;51.050;14.608;2023-05-07T09:46:58;10.40;99.90
4566;DHT22;2295;51.050;14.608;2023-05-07T09:49:29;10.20;99.90
4566;DHT22;2295;51.050;14.608;2023-05-07T09:52:06;10.20;99.90
4566;DHT22;2295;51.050;14.608;2023-05-07T09:54:37;10.20;99.90
4566;DHT22;2295;51.050;14.608;2023-05-07T09:57:10;10.40;99.90
4566;DHT22;2295;51.050;14.608;2023-05-07T09:59:42;10.40;99.90
4566;DHT22;2295;51.050;14.608;2023-05-07T10:02:13;10.50;99.90
4566;DHT22;2295;51.050;14.608;2023-05-07T10:04:43;10.60;99.90
4566;DHT22;2295;51.050;14.608;2023-05-07T10:07:11;10.40;99.90
4566;DHT22;2295;51.050;14.608;2023-05-07T10:09:40;10.40;99.90
4566;DHT22;2295;51.050;14.608;2023-05-07T10:12:10;10.50;99.90
4566;DHT22;2295;51.050;14.608;2023-05-07T10:14:39;10.50;99.90
4566;DHT22;2295;51.050;14.608;2023-05-07T10:17:13;10.50;99.90
4566;DHT22;2295;51.050;14.608;2023-05-07T10:19:45;10.60;99.90
4566;DHT22;2295;51.050;14.608;2023-05-07T10:22:14;10.30;99.90
4566;DHT22;2295;51.050;14.608;2023-05-07T10:24:45;10.10;99.90
4566;DHT22;2295;51.050;14.608;2023-05-07T10:27:19;10.10;99.90
4566;DHT22;2295;51.050;14.608;2023-05-07T10:29:54;10.20;99.90
4566;DHT22;2295;51.050;14.608;2023-05-07T10:32:35;10.30;99.90
4566;DHT22;2295;51.050;14.608;2023-05-07T10:35:09;10.20;99.90
4566;DHT22;2295;51.050;14.608;2023-05-07T10:37:38;10.20;99.90
4566;DHT22;2295;51.050;14.608;2023-05-07T10:40:09;10.30;99.90
4566;DHT22;2295;51.050;14.608;2023-05-07T10:42:38;10.60;99.90
4566;DHT22;2295;51.050;14.608;2023-05-07T10:45:12;11.40;99.90
4566;DHT22;2295;51.050;14.608;2023-05-07T10:48:10;11.90;99.90
4566;DHT22;2295;51.050;14.608;2023-05-07T10:50:41;12.20;99.90
4566;DHT22;2295;51.050;14.608;2023-05-07T10:53:25;12.00;99.90
4566;DHT22;2295;51.050;14.608;2023-05-07T10:56:24;11.30;99.90
4566;DHT22;2295;51.050;14.608;2023-05-07T10:58:52;10.60;99.90
4566;DHT22;2295;51.050;14.608;2023-05-07T11:01:53;10.60;99.90
4566;DHT22;2295;51.050;14.608;2023-05-07T11:04:23;10.60;99.90
4566;DHT22;2295;51.050;14.608;2023-05-07T11:10:04;10.80;99.90
4566;DHT22;2295;51.050;14.608;2023-05-07T11:12:54;10.70;99.90
4566;DHT22;2295;51.050;14.608;2023-05-07T11:15:45;10.80;99.90
4566;DHT22;2295;51.050;14.608;2023-05-07T11:18:20;10.70;99.90
4566;DHT22;2295;51.050;14.608;2023-05-07T11:20:56;10.50;99.90
4566;DHT22;2295;51.050;14.608;2023-05-07T11:23:56;10.20;99.90
4566;DHT22;2295;51.050;14.608;2023-05-07T11:26:29;10.00;99.90
4566;DHT22;2295;51.050;14.608;2023-05-07T11:28:58;9.80;99.90
4566;DHT22;2295;51.050;14.608;2023-05-07T11:31:27;9.80;99.90
4566;DHT22;2295;51.050;14.608;2023-05-07T11:33:57;9.80;99.90
4566;DHT22;2295;51.050;14.608;2023-05-07T11:36:32;9.90;99.90
4566;DHT22;2295;51.050;14.608;2023-05-07T11:39:03;10.10;99.90
4566;DHT22;2295;51.050;14.608;2023-05-07T11:41:35;10.30;99.90
4566;DHT22;2295;51.050;14.608;2023-05-07T11:44:04;10.50;99.90
4566;DHT22;2295;51.050;14.608;2023-05-07T11:46:33;10.50;99.90
4566;DHT22;2295;51.050;14.608;2023-05-07T11:49:02;10.70;99.90
4566;DHT22;2295;51.050;14.608;2023-05-07T11:51:31;10.80;99.90
4566;DHT22;2295;51.050;14.608;2023-05-07T11:54:00;10.80;99.90
4566;DHT22;2295;51.050;14.608;2023-05-07T11:56:28;10.50;99.90
4566;DHT22;2295;51.050;14.608;2023-05-07T11:58:56;10.20;99.90
4566;DHT22;2295;51.050;14.608;2023-05-07T12:01:27;10.20;99.90
4566;DHT22;2295;51.050;14.608;2023-05-07T12:03:58;10.40;99.90
4566;DHT22;2295;51.050;14.608;2023-05-07T12:06:36;10.50;99.90
4566;DHT22;2295;51.050;14.608;2023-05-07T12:09:05;10.70;99.90
4566;DHT22;2295;51.050;14.608;2023-05-07T12:11:38;10.90;99.90
4566;DHT22;2295;51.050;14.608;2023-05-07T12:14:08;10.80;99.90
4566;DHT22;2295;51.050;14.608;2023-05-07T12:16:40;10.80;99.90
4566;DHT22;2295;51.050;14.608;2023-05-07T12:19:08;10.90;99.90
4566;DHT22;2295;51.050;14.608;2023-05-07T12:21:43;11.10;99.90
4566;DHT22;2295;51.050;14.608;2023-05-07T12:24:11;11.10;99.90
4566;DHT22;2295;51.050;14.608;2023-05-07T12:26:39;11.00;99.90
4566;DHT22;2295;51.050;14.608;2023-05-07T12:29:08;11.00;99.90
4566;DHT22;2295;51.050;14.608;2023-05-07T12:31:40;11.10;99.90
4566;DHT22;2295;51.050;14.608;2023-05-07T12:34:10;11.10;99.90
4566;DHT22;2295;51.050;14.608;2023-05-07T12:36:39;11.30;99.90
4566;DHT22;2295;51.050;14.608;2023-05-07T12:39:09;11.40;99.90
4566;DHT22;2295;51.050;14.608;2023-05-07T12:41:53;11.50;99.90
4566;DHT22;2295;51.050;14.608;2023-05-07T12:44:22;11.70;99.90
4566;DHT22;2295;51.050;14.608;2023-05-07T12:46:51;11.90;99.90
4566;DHT22;2295;51.050;14.608;2023-05-07T12:49:20;11.50;99.90
4566;DHT22;2295;51.050;14.608;2023-05-07T12:51:51;11.10;99.90
4566;DHT22;2295;51.050;14.608;2023-05-07T12:54:31;10.80;99.90
4566;DHT22;2295;51.050;14.608;2023-05-07T12:57:03;10.80;99.90
4566;DHT22;2295;51.050;14.608;2023-05-07T12:59:36;10.70;99.90
4566;DHT22;2295;51.050;14.608;2023-05-07T13:02:05;10.80;99.90
4566;DHT22;2295;51.050;14.608;2023-05-07T13:04:34;10.90;99.90
4566;DHT22;2295;51.050;14.608;2023-05-07T13:07:03;11.00;99.90
4566;DHT22;2295;51.050;14.608;2023-05-07T13:09:32;10.90;99.90
4566;DHT22;2295;51.050;14.608;2023-05-07T13:12:01;11.00;99.90
4566;DHT22;2295;51.050;14.608;2023-05-07T13:14:31;11.10;99.90
4566;DHT22;2295;51.050;14.608;2023-05-07T13:16:59;11.20;99.90
4566;DHT22;2295;51.050;14.608;2023-05-07T13:19:28;11.30;99.90
4566;DHT22;2295;51.050;14.608;2023-05-07T13:22:00;11.10;99.90
4566;DHT22;2295;51.050;14.608;2023-05-07T13:24:28;11.20;99.90
4566;DHT22;2295;51.050;14.608;2023-05-07T13:26:58;11.00;99.90
4566;DHT22;2295;51.050;14.608;2023-05-07T13:29:29;10.80;99.90
4566;DHT22;2295;51.050;14.608;2023-05-07T13:32:01;10.50;99.90
4566;DHT22;2295;51.050;14.608;2023-05-07T13:34:30;10.30;99.90
4566;DHT22;2295;51.050;14.608;2023-05-07T13:37:01;10.20;99.90
4566;DHT22;2295;51.050;14.608;2023-05-07T13:39:29;10.00;99.90
4566;DHT22;2295;51.050;14.608;2023-05-07T13:41:59;9.90;99.90
4566;DHT22;2295;51.050;14.608;2023-05-07T13:44:28;9.70;99.90
4566;DHT22;2295;51.050;14.608;2023-05-07T13:46:59;9.50;99.90
4566;DHT22;2295;51.050;14.608;2023-05-07T13:49:28;9.50;99.90
4566;DHT22;2295;51.050;14.608;2023-05-07T13:51:59;9.50;99.90
4566;DHT22;2295;51.050;14.608;2023-05-07T13:54:27;9.40;99.90
4566;DHT22;2295;51.050;14.608;2023-05-07T13:56:55;9.40;99.90
4566;DHT22;2295;51.050;14.608;2023-05-07T13:59:25;9.50;99.90
4566;DHT22;2295;51.050;14.608;2023-05-07T14:01:53;9.50;99.90
4566;DHT22;2295;51.050;14.608;2023-05-07T14:04:22;9.70;99.90
4566;DHT22;2295;51.050;14.608;2023-05-07T14:06:50;9.80;99.90
4566;DHT22;2295;51.050;14.608;2023-05-07T14:09:19;9.90;99.90
4566;DHT22;2295;51.050;14.608;2023-05-07T14:11:47;9.80;99.90
4566;DHT22;2295;51.050;14.608;2023-05-07T14:14:19;9.80;99.90
4566;DHT22;2295;51.050;14.608;2023-05-07T14:16:48;9.80;99.90
4566;DHT22;2295;51.050;14.608;2023-05-07T14:19:20;9.80;99.90
4566;DHT22;2295;51.050;14.608;2023-05-07T14:21:52;9.90;99.90
4566;DHT22;2295;51.050;14.608;2023-05-07T14:24:29;10.00;99.90
4566;DHT22;2295;51.050;14.608;2023-05-07T14:27:04;10.10;99.90
4566;DHT22;2295;51.050;14.608;2023-05-07T14:29:39;10.10;99.90
4566;DHT22;2295;51.050;14.608;2023-05-07T14:32:09;9.90;99.90
4566;DHT22;2295;51.050;14.608;2023-05-07T14:34:37;9.70;99.90
4566;DHT22;2295;51.050;14.608;2023-05-07T14:37:05;9.70;99.90
4566;DHT22;2295;51.050;14.608;2023-05-07T14:39:43;9.70;99.90
4566;DHT22;2295;51.050;14.608;2023-05-07T14:42:16;9.70;99.90
4566;DHT22;2295;51.050;14.608;2023-05-07T14:44:44;9.50;99.90
4566;DHT22;2295;51.050;14.608;2023-05-07T14:47:18;9.30;99.90
4566;DHT22;2295;51.050;14.608;2023-05-07T14:49:47;9.10;99.90
4566;DHT22;2295;51.050;14.608;2023-05-07T14:52:15;9.10;99.90
4566;DHT22;2295;51.050;14.608;2023-05-07T14:54:43;9.10;99.90
4566;DHT22;2295;51.050;14.608;2023-05-07T14:57:15;9.20;99.90
4566;DHT22;2295;51.050;14.608;2023-05-07T14:59:45;9.40;99.90
4566;DHT22;2295;51.050;14.608;2023-05-07T15:02:18;9.50;99.90
4566;DHT22;2295;51.050;14.608;2023-05-07T15:04:47;9.50;99.90
4566;DHT22;2295;51.050;14.608;2023-05-07T15:07:15;9.40;99.90
4566;DHT22;2295;51.050;14.608;2023-05-07T15:09:44;9.20;99.90
4566;DHT22;2295;51.050;14.608;2023-05-07T15:12:16;9.30;99.90
4566;DHT22;2295;51.050;14.608;2023-05-07T15:14:44;9.30;99.90
4566;DHT22;2295;51.050;14.608;2023-05-07T15:17:12;9.50;99.90
4566;DHT22;2295;51.050;14.608;2023-05-07T15:19:45;9.40;99.90
4566;DHT22;2295;51.050;14.608;2023-05-07T15:22:16;9.40;99.90
4566;DHT22;2295;51.050;14.608;2023-05-07T15:24:44;9.50;99.90
4566;DHT22;2295;51.050;14.608;2023-05-07T15:27:12;9.60;99.90
4566;DHT22;2295;51.050;14.608;2023-05-07T15:29:41;9.60;99.90
4566;DHT22;2295;51.050;14.608;2023-05-07T15:32:09;9.60;99.90
4566;DHT22;2295;51.050;14.608;2023-05-07T15:34:38;9.70;99.90
4566;DHT22;2295;51.050;14.608;2023-05-07T15:37:10;9.70;99.90
4566;DHT22;2295;51.050;14.608;2023-05-07T15:39:39;9.60;99.90
4566;DHT22;2295;51.050;14.608;2023-05-07T15:42:10;9.60;99.90
4566;DHT22;2295;51.050;14.608;2023-05-07T15:44:38;9.60;99.90
4566;DHT22;2295;51.050;14.608;2023-05-07T15:47:07;9.60;99.90
4566;DHT22;2295;51.050;14.608;2023-05-07T15:49:35;9.60;99.90
4566;DHT22;2295;51.050;14.608;2023-05-07T15:52:08;9.70;99.90
4566;DHT22;2295;51.050;14.608;2023-05-07T15:54:37;9.60;99.90
4566;DHT22;2295;51.050;14.608;2023-05-07T15:57:05;9.70;99.90
4566;DHT22;2295;51.050;14.608;2023-05-07T15:59:40;9.90;99.90
4566;DHT22;2295;51.050;14.608;2023-05-07T16:02:09;9.90;99.90
4566;DHT22;2295;51.050;14.608;2023-05-07T16:04:37;9.90;99.90
4566;DHT22;2295;51.050;14.608;2023-05-07T16:07:06;9.70;99.90
4566;DHT22;2295;51.050;14.608;2023-05-07T16:09:39;9.80;99.90
4566;DHT22;2295;51.050;14.608;2023-05-07T16:12:07;9.70;99.90
4566;DHT22;2295;51.050;14.608;2023-05-07T16:14:36;9.60;99.90
4566;DHT22;2295;51.050;14.608;2023-05-07T16:17:10;9.50;99.90
4566;DHT22;2295;51.050;14.608;2023-05-07T16:19:38;9.50;99.90